createdAt,value
2023-04-07T00:02:07.591Z,99270.25
2023-04-07T00:04:54.723Z,99268.63
2023-04-07T00:07:52.253Z,99258.50
2023-04-07T00:10:43.410Z,99259.19
2023-04-07T00:13:30.883Z,99271.88
2023-04-07T00:16:18.062Z,99257.50
2023-04-07T00:19:05.180Z,99253.81
2023-04-07T00:21:52.209Z,99246.09
2023-04-07T00:24:39.254Z,99263.50
2023-04-07T00:27:26.527Z,99267.69
2023-04-07T00:30:15.384Z,99253.50
2023-04-07T00:33:02.512Z,99254.00
2023-04-07T00:35:49.730Z,99253.38
2023-04-07T00:38:36.900Z,99260.53
2023-04-07T00:41:23.922Z,99251.28
2023-04-07T00:44:11.006Z,99245.81
2023-04-07T00:46:58.044Z,99248.41
2023-04-07T00:49:45.121Z,99249.25
2023-04-07T00:52:33.587Z,99245.00
2023-04-07T00:55:20.667Z,99244.50
2023-04-07T00:58:08.038Z,99248.81
2023-04-07T01:01:33.975Z,99243.03
2023-04-07T01:04:32.092Z,99229.41
2023-04-07T01:07:22.079Z,99239.38
2023-04-07T01:10:15.094Z,99223.13
2023-04-07T01:13:09.140Z,99233.41
2023-04-07T01:16:01.152Z,99231.78
2023-04-07T01:18:52.424Z,99219.28
2023-04-07T01:21:41.790Z,99224.78
2023-04-07T01:24:57.068Z,99226.56
2023-04-07T01:27:52.494Z,99222.28
2023-04-07T01:30:41.948Z,99224.22
2023-04-07T01:33:32.812Z,99220.81
2023-04-07T01:36:21.679Z,99228.50
2023-04-07T01:39:10.054Z,99222.50
2023-04-07T01:41:58.187Z,99221.66
2023-04-07T01:44:46.891Z,99218.47
2023-04-07T01:47:37.614Z,99221.22
2023-04-07T01:50:25.931Z,99219.56
2023-04-07T01:53:14.300Z,99223.94
2023-04-07T01:56:01.297Z,99214.22
2023-04-07T01:58:48.638Z,99213.34
2023-04-07T02:01:36.156Z,99209.72
2023-04-07T02:05:00.354Z,99217.22
2023-04-07T02:08:12.365Z,99204.34
2023-04-07T02:11:01.242Z,99213.50
2023-04-07T02:13:50.103Z,99208.78
2023-04-07T02:16:39.762Z,99198.66
2023-04-07T02:19:27.662Z,99202.09
2023-04-07T02:22:16.652Z,99197.50
2023-04-07T02:25:03.764Z,99201.41
2023-04-07T02:27:50.948Z,99194.44
2023-04-07T02:30:38.002Z,99189.56
2023-04-07T02:33:25.085Z,99192.69
2023-04-07T02:36:12.116Z,99190.22
2023-04-07T02:38:59.154Z,99184.44
2023-04-07T02:41:46.203Z,99193.56
2023-04-07T02:44:33.207Z,99178.91
2023-04-07T02:47:20.611Z,99190.25
2023-04-07T02:50:08.149Z,99182.34
2023-04-07T02:52:55.158Z,99182.66
2023-04-07T02:55:42.211Z,99180.34
2023-04-07T02:58:29.222Z,99186.72
2023-04-07T03:01:16.324Z,99174.38
2023-04-07T03:04:03.607Z,99184.25
2023-04-07T03:06:50.766Z,99177.25
2023-04-07T03:09:37.806Z,99177.22
2023-04-07T03:12:24.875Z,99175.00
2023-04-07T03:15:11.945Z,99171.91
2023-04-07T03:17:59.032Z,99163.94
2023-04-07T03:20:48.922Z,99169.91
2023-04-07T03:23:36.380Z,99171.47
2023-04-07T03:26:23.953Z,99163.28
2023-04-07T03:29:11.147Z,99170.50
2023-04-07T03:31:58.228Z,99168.47
2023-04-07T03:34:45.411Z,99163.44
2023-04-07T03:37:32.428Z,99167.31
2023-04-07T03:40:19.856Z,99176.13
2023-04-07T03:43:12.534Z,99164.06
2023-04-07T03:45:59.717Z,99148.66
2023-04-07T03:48:47.451Z,99156.06
2023-04-07T03:51:34.494Z,99167.94
2023-04-07T03:54:21.544Z,99161.19
2023-04-07T03:57:08.633Z,99170.88
2023-04-07T03:59:56.285Z,99168.41
2023-04-07T04:02:43.592Z,99163.28
2023-04-07T04:05:30.904Z,99160.88
2023-04-07T04:08:17.967Z,99154.13
2023-04-07T04:11:05.039Z,99151.66
2023-04-07T04:13:52.261Z,99155.03
2023-04-07T04:16:39.424Z,99154.13
2023-04-07T04:19:26.550Z,99149.84
2023-04-07T04:22:13.749Z,99136.47
2023-04-07T04:25:01.341Z,99158.78
2023-04-07T04:27:48.357Z,99154.19
2023-04-07T04:30:35.563Z,99151.19
2023-04-07T04:33:22.668Z,99141.09
2023-04-07T04:36:09.817Z,99140.88
2023-04-07T04:38:57.085Z,99154.59
2023-04-07T04:41:45.123Z,99153.88
2023-04-07T04:44:32.206Z,99141.88
2023-04-07T04:47:19.782Z,99148.84
2023-04-07T04:50:07.615Z,99144.50
2023-04-07T04:52:54.669Z,99149.56
2023-04-07T04:55:44.177Z,99150.34
2023-04-07T04:58:31.417Z,99152.50
2023-04-07T05:01:18.485Z,99150.03
2023-04-07T05:04:05.984Z,99147.56
2023-04-07T05:06:53.168Z,99147.41
2023-04-07T05:09:40.204Z,99146.41
2023-04-07T05:12:27.438Z,99150.56
2023-04-07T05:15:15.709Z,99147.25
2023-04-07T05:18:02.773Z,99153.22
2023-04-07T05:20:50.427Z,99159.25
2023-04-07T05:23:37.456Z,99151.66
2023-04-07T05:26:24.613Z,99147.22
2023-04-07T05:29:11.667Z,99152.34
2023-04-07T05:31:58.746Z,99152.50
2023-04-07T05:34:45.891Z,99140.78
2023-04-07T05:37:33.016Z,99146.84
2023-04-07T05:40:20.483Z,99143.78
2023-04-07T05:43:07.662Z,99145.00
2023-04-07T05:45:54.785Z,99143.84
2023-04-07T05:48:42.229Z,99150.09
2023-04-07T05:51:29.340Z,99150.25
2023-04-07T05:54:16.726Z,99149.41
2023-04-07T05:57:04.511Z,99159.03
2023-04-07T05:59:53.953Z,99145.78
2023-04-07T06:02:44.554Z,99149.97
2023-04-07T06:06:26.193Z,99130.72
2023-04-07T06:09:00.423Z,99157.00
2023-04-07T06:11:52.498Z,99148.25
2023-04-07T06:14:40.417Z,99138.19
2023-04-07T06:17:37.365Z,99091.19
2023-04-07T06:20:28.284Z,99129.94
2023-04-07T06:23:15.463Z,99154.56
2023-04-07T06:26:05.147Z,99136.41
2023-04-07T06:28:52.700Z,99121.88
2023-04-07T06:31:39.895Z,99134.06
2023-04-07T06:34:28.070Z,99142.38
2023-04-07T06:37:17.169Z,99121.50
2023-04-07T06:40:04.844Z,99133.16
2023-04-07T06:42:52.367Z,99099.09
2023-04-07T06:45:39.616Z,99106.97
2023-04-07T06:48:26.818Z,99144.88
2023-04-07T06:51:13.976Z,99113.19
2023-04-07T06:54:01.537Z,99114.69
2023-04-07T06:56:54.670Z,99091.19
2023-04-07T06:59:42.041Z,99132.81
2023-04-07T07:02:29.236Z,99114.16
2023-04-07T07:05:16.736Z,99116.69
2023-04-07T07:08:03.989Z,99122.88
2023-04-07T07:10:51.324Z,99106.09
2023-04-07T07:13:38.540Z,99129.03
2023-04-07T07:16:26.315Z,99119.91
2023-04-07T07:19:15.055Z,99068.91
2023-04-07T07:22:04.308Z,99092.53
2023-04-07T07:24:51.571Z,99107.69
2023-04-07T07:27:38.609Z,99110.06
2023-04-07T07:30:26.500Z,99079.50
2023-04-07T07:33:13.737Z,99121.56
2023-04-07T07:36:03.140Z,99111.38
2023-04-07T07:38:51.995Z,99105.16
2023-04-07T07:41:39.121Z,99110.25
2023-04-07T07:44:26.289Z,99101.16
2023-04-07T07:47:13.488Z,99096.84
2023-04-07T07:50:01.238Z,99106.56
2023-04-07T07:52:48.469Z,99060.59
2023-04-07T07:55:35.597Z,99076.16
2023-04-07T07:58:22.957Z,99100.50
2023-04-07T08:01:16.750Z,99091.25
2023-04-07T08:04:04.050Z,99096.50
2023-04-07T08:06:51.827Z,99070.59
2023-04-07T08:09:38.992Z,99072.47
2023-04-07T08:12:42.390Z,99077.72
2023-04-07T08:15:29.616Z,99071.13
2023-04-07T08:18:16.771Z,99044.72
2023-04-07T08:21:10.468Z,99063.00
2023-04-07T08:24:06.535Z,99043.31
2023-04-07T08:26:53.739Z,99069.66
2023-04-07T08:29:40.932Z,99059.44
2023-04-07T08:32:38.724Z,99015.97
2023-04-07T08:35:31.795Z,99027.81
2023-04-07T08:38:19.088Z,99022.59
2023-04-07T08:41:18.333Z,99013.19
2023-04-07T08:44:07.169Z,99015.91
2023-04-07T08:47:03.321Z,99008.78
2023-04-07T08:50:21.792Z,99002.53
2023-04-07T08:53:42.678Z,99038.75
2023-04-07T08:56:44.192Z,98970.09
2023-04-07T09:03:27.081Z,98977.59
2023-04-07T09:09:57.789Z,99000.00
2023-04-07T09:16:15.046Z,98969.81
2023-04-07T09:19:05.178Z,98986.09
2023-04-07T09:22:01.535Z,98932.59
2023-04-07T09:24:49.495Z,98977.59
2023-04-07T09:28:05.119Z,99004.97
2023-04-07T09:31:02.031Z,99008.03
2023-04-07T09:33:53.435Z,98990.78
2023-04-07T09:36:43.248Z,98920.19
2023-04-07T09:39:30.849Z,98998.78
2023-04-07T09:42:18.015Z,98978.88
2023-04-07T09:45:05.769Z,98991.44
2023-04-07T09:47:53.712Z,98943.59
2023-04-07T09:50:42.236Z,98953.03
2023-04-07T09:53:43.034Z,98962.88
2023-04-07T09:56:32.511Z,98957.91
2023-04-07T09:59:21.618Z,98928.19
2023-04-07T10:02:09.221Z,98957.72
2023-04-07T10:05:11.170Z,98942.34
2023-04-07T10:07:58.635Z,98952.09
2023-04-07T10:10:47.804Z,98954.09
2023-04-07T10:13:38.083Z,98951.88
2023-04-07T10:16:25.887Z,98942.38
2023-04-07T10:19:14.222Z,98942.06
2023-04-07T10:22:03.299Z,98925.09
2023-04-07T10:24:59.028Z,98946.81
2023-04-07T10:27:54.044Z,98915.50
2023-04-07T10:30:42.223Z,98913.00
2023-04-07T10:33:53.700Z,98950.03
2023-04-07T10:37:22.795Z,98948.66
2023-04-07T10:40:19.365Z,98933.31
2023-04-07T10:43:39.352Z,98936.19
2023-04-07T10:46:52.294Z,98938.16
2023-04-07T10:50:00.728Z,98897.97
2023-04-07T10:53:04.827Z,98872.81
2023-04-07T10:55:56.128Z,98895.16
2023-04-07T10:58:43.616Z,98898.13
2023-04-07T11:01:30.915Z,98907.25
2023-04-07T11:04:18.447Z,98873.56
2023-04-07T11:07:06.109Z,98879.78
2023-04-07T11:10:12.190Z,98911.91
2023-04-07T11:13:06.737Z,98860.06
2023-04-07T11:15:57.099Z,98896.25
2023-04-07T11:18:46.901Z,98902.19
2023-04-07T11:21:34.115Z,98892.56
2023-04-07T11:24:34.259Z,98886.69
2023-04-07T11:27:21.744Z,98859.81
2023-04-07T11:30:10.585Z,98879.94
2023-04-07T11:32:57.884Z,98874.00
2023-04-07T11:35:57.075Z,98854.44
2023-04-07T11:38:47.211Z,98851.59
2023-04-07T11:41:45.893Z,98873.25
2023-04-07T11:44:33.004Z,98872.16
2023-04-07T11:47:20.083Z,98873.09
2023-04-07T11:50:07.934Z,98877.00
2023-04-07T11:52:55.059Z,98867.31
2023-04-07T11:55:42.215Z,98863.25
2023-04-07T11:58:29.647Z,98874.47
2023-04-07T12:01:16.882Z,98857.75
2023-04-07T12:04:05.026Z,98864.16
2023-04-07T12:06:52.176Z,98861.94
2023-04-07T12:09:40.302Z,98854.31
2023-04-07T12:12:30.044Z,98855.22
2023-04-07T12:15:17.467Z,98845.56
2023-04-07T12:18:04.912Z,98848.00
2023-04-07T12:20:52.126Z,98875.31
2023-04-07T12:23:39.205Z,98867.19
2023-04-07T12:26:26.533Z,98875.16
2023-04-07T12:29:14.450Z,98861.38
2023-04-07T12:32:01.836Z,98856.09
2023-04-07T12:34:51.721Z,98825.25
2023-04-07T12:37:38.958Z,98850.69
2023-04-07T12:40:29.596Z,98856.13
2023-04-07T12:43:16.831Z,98842.63
2023-04-07T12:46:04.033Z,98842.22
2023-04-07T12:48:51.626Z,98848.00
2023-04-07T12:51:40.251Z,98851.22
2023-04-07T12:54:28.909Z,98863.00
2023-04-07T12:57:16.331Z,98859.00
2023-04-07T13:00:03.931Z,98867.28
2023-04-07T13:02:51.334Z,98848.09
2023-04-07T13:05:38.918Z,98861.97
2023-04-07T13:08:35.080Z,98850.19
2023-04-07T13:11:22.295Z,98855.66
2023-04-07T13:14:09.721Z,98820.03
2023-04-07T13:16:56.941Z,98851.84
2023-04-07T13:19:47.024Z,98836.34
2023-04-07T13:22:35.820Z,98834.31
2023-04-07T13:25:29.250Z,98858.22
2023-04-07T13:28:18.501Z,98818.66
2023-04-07T13:31:05.918Z,98817.69
2023-04-07T13:33:53.081Z,98805.72
2023-04-07T13:36:40.708Z,98840.78
2023-04-07T13:39:27.839Z,98841.88
2023-04-07T13:42:17.659Z,98828.88
2023-04-07T13:45:12.461Z,98834.69
2023-04-07T13:47:59.700Z,98835.06
2023-04-07T13:50:47.845Z,98824.53
2023-04-07T13:53:36.465Z,98807.84
2023-04-07T13:56:27.779Z,98831.47
2023-04-07T13:59:15.080Z,98824.19
2023-04-07T14:02:04.434Z,98832.31
2023-04-07T14:05:05.091Z,98833.97
2023-04-07T14:07:52.326Z,98839.28
2023-04-07T14:10:44.607Z,98821.81
2023-04-07T14:13:31.700Z,98792.38
2023-04-07T14:16:19.036Z,98796.31
2023-04-07T14:19:07.133Z,98801.22
2023-04-07T14:21:54.299Z,98801.22
2023-04-07T14:24:41.457Z,98815.38
2023-04-07T14:27:31.376Z,98803.34
2023-04-07T14:30:18.771Z,98829.88
2023-04-07T14:33:06.054Z,98806.13
2023-04-07T14:35:53.483Z,98818.75
2023-04-07T14:38:41.184Z,98819.97
2023-04-07T14:41:28.417Z,98822.03
2023-04-07T14:44:16.218Z,98831.13
2023-04-07T14:47:03.425Z,98802.22
2023-04-07T14:49:53.224Z,98837.00
2023-04-07T14:52:40.967Z,98825.13
2023-04-07T14:55:28.345Z,98801.16
2023-04-07T14:58:15.578Z,98822.91
2023-04-07T15:01:05.621Z,98802.41
2023-04-07T15:03:53.942Z,98834.41
2023-04-07T15:06:42.968Z,98808.81
2023-04-07T15:09:30.057Z,98835.31
2023-04-07T15:12:17.199Z,98799.63
2023-04-07T15:15:18.874Z,98822.19
2023-04-07T15:18:06.000Z,98812.78
2023-04-07T15:20:53.131Z,98815.69
2023-04-07T15:23:42.236Z,98808.22
2023-04-07T15:26:29.451Z,98801.13
2023-04-07T15:29:16.616Z,98818.81
2023-04-07T15:32:09.851Z,98823.25
2023-04-07T15:34:56.900Z,98823.47
2023-04-07T15:37:45.167Z,98828.81
2023-04-07T15:40:32.157Z,98800.94
2023-04-07T15:43:19.309Z,98802.56
2023-04-07T15:46:06.447Z,98800.16
2023-04-07T15:48:53.732Z,98819.66
2023-04-07T15:51:41.046Z,98827.47
2023-04-07T15:54:28.378Z,98821.56
2023-04-07T15:57:16.861Z,98799.38
2023-04-07T16:00:04.812Z,98830.53
2023-04-07T16:02:52.002Z,98824.38
2023-04-07T16:05:39.287Z,98826.28
2023-04-07T16:08:26.373Z,98825.44
2023-04-07T16:11:13.598Z,98817.78
2023-04-07T16:14:00.741Z,98828.81
2023-04-07T16:16:47.876Z,98829.53
2023-04-07T16:19:35.164Z,98829.09
2023-04-07T16:22:22.205Z,98829.19
2023-04-07T16:25:09.689Z,98822.00
2023-04-07T16:27:56.885Z,98825.72
2023-04-07T16:30:44.075Z,98831.97
2023-04-07T16:33:31.134Z,98833.28
2023-04-07T16:36:18.246Z,98837.41
2023-04-07T16:39:05.774Z,98831.66
2023-04-07T16:41:53.012Z,98841.94
2023-04-07T16:44:40.093Z,98835.28
2023-04-07T16:47:28.242Z,98840.47
2023-04-07T16:50:15.904Z,98843.19
2023-04-07T16:53:02.959Z,98835.97
2023-04-07T16:55:49.977Z,98843.19
2023-04-07T16:58:36.964Z,98851.41
2023-04-07T17:01:24.066Z,98864.38
2023-04-07T17:04:11.267Z,98859.13
2023-04-07T17:07:05.179Z,98794.13
2023-04-07T17:09:52.287Z,98872.56
2023-04-07T17:12:39.409Z,98860.84
2023-04-07T17:15:26.555Z,98874.69
2023-04-07T17:18:13.569Z,98871.28
2023-04-07T17:21:00.704Z,98866.69
2023-04-07T17:23:48.227Z,98882.84
2023-04-07T17:26:35.671Z,98881.31
2023-04-07T17:29:28.833Z,98884.09
2023-04-07T17:32:15.904Z,98900.13
2023-04-07T17:35:03.007Z,98900.97
2023-04-07T17:37:50.896Z,98895.94
2023-04-07T17:40:37.931Z,98902.13
2023-04-07T17:43:25.051Z,98912.38
2023-04-07T17:46:12.131Z,98911.56
2023-04-07T17:48:59.332Z,98924.00
2023-04-07T17:51:46.369Z,98928.06
2023-04-07T17:54:34.050Z,98932.47
2023-04-07T17:57:21.138Z,98932.44
2023-04-07T18:00:09.205Z,98938.72
2023-04-07T18:02:56.543Z,98939.34
2023-04-07T18:05:45.053Z,98951.09
2023-04-07T18:08:32.061Z,98945.59
2023-04-07T18:11:19.291Z,98957.34
2023-04-07T18:14:06.357Z,98967.53
2023-04-07T18:16:54.787Z,98974.34
2023-04-07T18:19:41.970Z,98977.19
2023-04-07T18:22:29.020Z,98980.00
2023-04-07T18:25:16.595Z,98966.44
2023-04-07T18:28:04.288Z,98986.63
2023-04-07T18:31:00.110Z,98987.91
2023-04-07T18:33:47.423Z,98994.09
2023-04-07T18:36:35.007Z,99000.59
2023-04-07T18:39:22.284Z,98999.31
2023-04-07T18:42:09.550Z,99010.88
2023-04-07T18:44:56.820Z,99009.81
2023-04-07T18:47:44.069Z,99007.06
2023-04-07T18:50:31.138Z,99013.03
2023-04-07T18:53:22.058Z,99006.00
2023-04-07T18:56:09.173Z,98988.69
2023-04-07T18:58:56.328Z,99009.94
2023-04-07T19:01:43.432Z,98999.09
2023-04-07T19:04:30.661Z,99012.91
2023-04-07T19:07:17.757Z,99013.34
2023-04-07T19:10:05.875Z,99011.09
2023-04-07T19:12:53.052Z,99014.78
2023-04-07T19:15:44.621Z,99020.53
2023-04-07T19:18:32.005Z,99023.06
2023-04-07T19:21:19.805Z,99019.53
2023-04-07T19:24:07.517Z,99038.00
2023-04-07T19:26:54.651Z,99019.09
2023-04-07T19:29:41.713Z,99027.28
2023-04-07T19:32:28.818Z,99035.13
2023-04-07T19:35:17.045Z,99038.81
2023-04-07T19:38:05.468Z,99032.88
2023-04-07T19:40:52.683Z,99037.69
2023-04-07T19:43:40.085Z,99037.56
2023-04-07T19:46:27.218Z,99039.66
2023-04-07T19:49:14.748Z,99051.31
2023-04-07T19:52:01.839Z,99052.44
2023-04-07T19:54:48.860Z,99047.84
2023-04-07T19:57:36.066Z,99046.81
2023-04-07T20:00:23.227Z,99066.22
2023-04-07T20:03:10.747Z,99050.53
2023-04-07T20:05:58.221Z,99064.22
2023-04-07T20:08:45.327Z,99063.81
2023-04-07T20:11:32.515Z,99057.94
2023-04-07T20:14:22.170Z,99062.59
2023-04-07T20:17:09.483Z,99061.44
2023-04-07T20:19:56.522Z,99055.13
2023-04-07T20:22:43.924Z,99055.78
2023-04-07T20:25:31.062Z,99063.06
2023-04-07T20:28:18.123Z,99048.81
2023-04-07T20:31:05.258Z,99041.88
2023-04-07T20:33:52.310Z,99053.13
2023-04-07T20:36:39.390Z,99066.50
2023-04-07T20:39:26.479Z,99054.94
2023-04-07T20:42:13.974Z,99058.78
2023-04-07T20:45:03.986Z,99066.25
2023-04-07T20:47:51.121Z,99070.09
2023-04-07T20:50:38.412Z,99070.31
2023-04-07T20:53:25.899Z,99067.34
2023-04-07T20:56:13.084Z,99067.56
2023-04-07T20:59:00.105Z,99058.81
2023-04-07T21:01:47.336Z,99070.31
2023-04-07T21:04:34.431Z,99066.19
2023-04-07T21:07:21.577Z,99057.50
2023-04-07T21:10:09.781Z,99071.84
2023-04-07T21:12:56.979Z,99070.50
2023-04-07T21:15:44.286Z,99062.94
2023-04-07T21:18:32.121Z,99069.78
2023-04-07T21:21:19.343Z,99051.66
2023-04-07T21:24:06.590Z,99074.22
2023-04-07T21:26:54.379Z,99072.91
2023-04-07T21:29:42.660Z,99070.97
2023-04-07T21:32:29.705Z,99051.06
2023-04-07T21:35:17.624Z,99058.69
2023-04-07T21:38:04.692Z,99050.81
2023-04-07T21:40:51.954Z,99064.88
2023-04-07T21:43:39.115Z,99057.56
2023-04-07T21:46:26.642Z,99055.50
2023-04-07T21:49:21.979Z,99054.31
2023-04-07T21:52:09.100Z,99060.06
2023-04-07T21:54:56.459Z,99065.41
2023-04-07T21:57:43.887Z,99057.72
2023-04-07T22:00:31.539Z,99047.56
2023-04-07T22:03:19.499Z,99037.84
2023-04-07T22:06:07.473Z,99062.59
2023-04-07T22:09:01.212Z,99053.09
2023-04-07T22:11:48.986Z,99046.09
2023-04-07T22:14:36.153Z,99058.34
2023-04-07T22:17:23.218Z,99052.50
2023-04-07T22:20:11.320Z,99046.56
2023-04-07T22:22:58.585Z,99055.28
2023-04-07T22:25:46.259Z,99049.88
2023-04-07T22:28:33.576Z,99057.25
2023-04-07T22:31:20.756Z,99063.78
2023-04-07T22:34:09.074Z,99063.38
2023-04-07T22:36:56.288Z,99068.19
2023-04-07T22:39:46.293Z,99072.22
2023-04-07T22:42:33.225Z,99078.16
2023-04-07T22:45:21.058Z,99078.28
2023-04-07T22:48:08.404Z,99082.31
2023-04-07T22:50:55.742Z,99087.78
2023-04-07T22:53:42.806Z,99088.53
2023-04-07T22:56:29.824Z,99082.34
2023-04-07T22:59:17.005Z,99086.09
2023-04-07T23:03:33.502Z,99085.03
2023-04-07T23:06:20.738Z,99083.41
2023-04-07T23:09:07.898Z,99088.25
2023-04-07T23:11:54.986Z,99081.28
2023-04-07T23:14:42.006Z,99091.84
2023-04-07T23:17:29.114Z,99080.69
2023-04-07T23:20:16.370Z,99078.63
2023-04-07T23:23:03.625Z,99071.13
2023-04-07T23:25:50.645Z,99081.78
2023-04-07T23:28:37.740Z,99078.53
2023-04-07T23:31:24.911Z,99088.47
2023-04-07T23:34:12.149Z,99095.03
2023-04-07T23:36:59.207Z,99087.38
2023-04-07T23:39:46.671Z,99094.47
2023-04-07T23:42:33.771Z,99082.97
2023-04-07T23:45:20.810Z,99086.56
2023-04-07T23:48:07.909Z,99087.53
2023-04-07T23:50:54.993Z,99086.00
2023-04-07T23:53:42.047Z,99081.66
2023-04-07T23:56:29.189Z,99091.66
2023-04-07T23:59:16.538Z,99094.13
